N355G KHHR-KCRQ
Flight info
| Callsign | N355G |
|---|---|
| Flight time | 0h 34m |
| Altitude | 9000 |
| Route | SLI OCN |
| Aircraft | SF50/L-VGDW/C |
Departure
| Time | 2026-04-20 00:59 |
|---|---|
| Airport | Jack Northrop Field Hawthorne Municipal Airport (KHHR) |
Arrival
| Time | 2026-04-20 01:33 |
|---|---|
| Airport | McClellan-Palomar Airport (KCRQ) |
| Time | Latitude | Longitude | Altitude | Speed | Heading |
|---|---|---|---|---|---|
| 2026-04-20 00:38 | 33.92253 | -118.32958 | 57 ft | 0 kts | 63° |
| 2026-04-20 00:53 | 33.92254 | -118.32956 | 57 ft | 0 kts | 63° |
| 2026-04-20 00:54 | 33.92261 | -118.32940 | 57 ft | 4 kts | 62° |
| 2026-04-20 00:54 | 33.92269 | -118.32886 | 57 ft | 8 kts | 89° |
| 2026-04-20 00:54 | 33.92273 | -118.32794 | 57 ft | 13 kts | 87° |
| 2026-04-20 00:54 | 33.92283 | -118.32725 | 57 ft | 0 kts | 45° |
| 2026-04-20 00:58 | 33.92292 | -118.32719 | 57 ft | 4 kts | 11° |
| 2026-04-20 00:58 | 33.92320 | -118.32771 | 57 ft | 22 kts | 267° |
| 2026-04-20 00:59 | 33.92296 | -118.33300 | 61 ft | 100 kts | 267° |
| 2026-04-20 00:59 | 33.92189 | -118.34339 | 324 ft | 143 kts | 255° |
| 2026-04-20 00:59 | 33.91847 | -118.35565 | 856 ft | 168 kts | 252° |
| 2026-04-20 00:59 | 33.91447 | -118.36976 | 1373 ft | 191 kts | 251° |
| 2026-04-20 01:00 | 33.91006 | -118.38578 | 1892 ft | 210 kts | 251° |
| 2026-04-20 01:00 | 33.90543 | -118.40302 | 2401 ft | 225 kts | 251° |
| 2026-04-20 01:00 | 33.90075 | -118.42101 | 2903 ft | 225 kts | 252° |
| 2026-04-20 01:00 | 33.89621 | -118.43903 | 3345 ft | 225 kts | 252° |
| 2026-04-20 01:01 | 33.89213 | -118.45596 | 4154 ft | 209 kts | 251° |
| 2026-04-20 01:01 | 33.88822 | -118.47286 | 4599 ft | 211 kts | 252° |
| 2026-04-20 01:01 | 33.88440 | -118.48991 | 5030 ft | 213 kts | 252° |
| 2026-04-20 01:01 | 33.87911 | -118.50617 | 5429 ft | 211 kts | 228° |
| 2026-04-20 01:02 | 33.86662 | -118.51440 | 5863 ft | 208 kts | 187° |
| 2026-04-20 01:02 | 33.85237 | -118.51334 | 6298 ft | 209 kts | 173° |
| 2026-04-20 01:02 | 33.83782 | -118.51070 | 6718 ft | 210 kts | 172° |
| 2026-04-20 01:02 | 33.82354 | -118.50797 | 7121 ft | 210 kts | 171° |
| 2026-04-20 01:03 | 33.80920 | -118.50518 | 7511 ft | 211 kts | 171° |
| 2026-04-20 01:03 | 33.79467 | -118.50234 | 7893 ft | 212 kts | 171° |
| 2026-04-20 01:03 | 33.78015 | -118.49948 | 8260 ft | 213 kts | 170° |
| 2026-04-20 01:03 | 33.76552 | -118.49660 | 8615 ft | 214 kts | 170° |
| 2026-04-20 01:04 | 33.75060 | -118.49372 | 8827 ft | 221 kts | 170° |
| 2026-04-20 01:04 | 33.73500 | -118.49075 | 8851 ft | 234 kts | 170° |
| 2026-04-20 01:04 | 33.71860 | -118.48761 | 8854 ft | 244 kts | 170° |
| 2026-04-20 01:04 | 33.70163 | -118.48434 | 8856 ft | 252 kts | 170° |
| 2026-04-20 01:05 | 33.68415 | -118.48096 | 8870 ft | 257 kts | 170° |
| 2026-04-20 01:05 | 33.66671 | -118.47761 | 8923 ft | 256 kts | 170° |
| 2026-04-20 01:05 | 33.64925 | -118.47425 | 8895 ft | 251 kts | 170° |
| 2026-04-20 01:05 | 33.63289 | -118.47118 | 9377 ft | 226 kts | 169° |
| 2026-04-20 01:06 | 33.61797 | -118.46856 | 9579 ft | 218 kts | 170° |
| 2026-04-20 01:06 | 33.60298 | -118.46600 | 9824 ft | 208 kts | 169° |
| 2026-04-20 01:06 | 33.58924 | -118.46386 | 10550 ft | 200 kts | 169° |
| 2026-04-20 01:06 | 33.57560 | -118.46197 | 10843 ft | 201 kts | 170° |
| 2026-04-20 01:07 | 33.56138 | -118.46007 | 10871 ft | 210 kts | 170° |
| 2026-04-20 01:07 | 33.54659 | -118.45778 | 10871 ft | 216 kts | 164° |
| 2026-04-20 01:07 | 33.53198 | -118.45313 | 10874 ft | 222 kts | 162° |
| 2026-04-20 01:07 | 33.51678 | -118.44890 | 10875 ft | 227 kts | 165° |
| 2026-04-20 01:08 | 33.50115 | -118.44518 | 10876 ft | 231 kts | 166° |
| 2026-04-20 01:08 | 33.48517 | -118.44171 | 10877 ft | 234 kts | 167° |
| 2026-04-20 01:08 | 33.46924 | -118.43843 | 10878 ft | 236 kts | 167° |
| 2026-04-20 01:08 | 33.45305 | -118.43519 | 10880 ft | 237 kts | 167° |
| 2026-04-20 01:09 | 33.43681 | -118.43197 | 10882 ft | 238 kts | 167° |
| 2026-04-20 01:09 | 33.42033 | -118.42872 | 10882 ft | 239 kts | 167° |
| 2026-04-20 01:09 | 33.40406 | -118.42553 | 10882 ft | 240 kts | 167° |
| 2026-04-20 01:09 | 33.38860 | -118.41864 | 10874 ft | 239 kts | 140° |
| 2026-04-20 01:10 | 33.37899 | -118.40275 | 10885 ft | 240 kts | 117° |
| 2026-04-20 01:10 | 33.36911 | -118.36387 | 10882 ft | 245 kts | 104° |
| 2026-04-20 01:10 | 33.36581 | -118.34395 | 10882 ft | 246 kts | 103° |
| 2026-04-20 01:11 | 33.36286 | -118.32387 | 10882 ft | 247 kts | 102° |
| 2026-04-20 01:11 | 33.36005 | -118.30347 | 10881 ft | 248 kts | 101° |
| 2026-04-20 01:11 | 33.35731 | -118.28310 | 10879 ft | 248 kts | 101° |
| 2026-04-20 01:11 | 33.35460 | -118.26267 | 10878 ft | 249 kts | 101° |
| 2026-04-20 01:12 | 33.35190 | -118.24222 | 10876 ft | 249 kts | 101° |
| 2026-04-20 01:12 | 33.34920 | -118.22176 | 10875 ft | 249 kts | 101° |
| 2026-04-20 01:12 | 33.34651 | -118.20128 | 10874 ft | 249 kts | 101° |
| 2026-04-20 01:12 | 33.34383 | -118.18095 | 10873 ft | 249 kts | 101° |
| 2026-04-20 01:13 | 33.34113 | -118.16056 | 10872 ft | 249 kts | 101° |
| 2026-04-20 01:13 | 33.33843 | -118.14013 | 10871 ft | 249 kts | 101° |
| 2026-04-20 01:13 | 33.33572 | -118.11964 | 10872 ft | 249 kts | 101° |
| 2026-04-20 01:13 | 33.33304 | -118.09936 | 10971 ft | 245 kts | 101° |
| 2026-04-20 01:14 | 33.33035 | -118.07912 | 10986 ft | 246 kts | 101° |
| 2026-04-20 01:14 | 33.32770 | -118.05920 | 10987 ft | 246 kts | 101° |
| 2026-04-20 01:14 | 33.32497 | -118.03867 | 10985 ft | 247 kts | 101° |
| 2026-04-20 01:14 | 33.32228 | -118.01844 | 10984 ft | 247 kts | 101° |
| 2026-04-20 01:15 | 33.31956 | -117.99811 | 10982 ft | 248 kts | 101° |
| 2026-04-20 01:15 | 33.31688 | -117.97802 | 10980 ft | 248 kts | 101° |
| 2026-04-20 01:15 | 33.31416 | -117.95768 | 10977 ft | 248 kts | 101° |
| 2026-04-20 01:15 | 33.31141 | -117.93714 | 10975 ft | 248 kts | 101° |
| 2026-04-20 01:16 | 33.30869 | -117.91684 | 10973 ft | 248 kts | 101° |
| 2026-04-20 01:16 | 33.30595 | -117.89645 | 10970 ft | 248 kts | 101° |
| 2026-04-20 01:16 | 33.30322 | -117.87614 | 10968 ft | 248 kts | 101° |
| 2026-04-20 01:16 | 33.30049 | -117.85582 | 10965 ft | 248 kts | 101° |
| 2026-04-20 01:17 | 33.29772 | -117.83530 | 10963 ft | 248 kts | 101° |
| 2026-04-20 01:17 | 33.29498 | -117.81500 | 10962 ft | 248 kts | 101° |
| 2026-04-20 01:17 | 33.29224 | -117.79481 | 10969 ft | 248 kts | 101° |
| 2026-04-20 01:17 | 33.28950 | -117.77462 | 10987 ft | 247 kts | 101° |
| 2026-04-20 01:18 | 33.28673 | -117.75416 | 10989 ft | 247 kts | 101° |
| 2026-04-20 01:18 | 33.28397 | -117.73382 | 10989 ft | 247 kts | 101° |
| 2026-04-20 01:18 | 33.28125 | -117.71379 | 10989 ft | 247 kts | 101° |
| 2026-04-20 01:18 | 33.27847 | -117.69334 | 10988 ft | 247 kts | 101° |
| 2026-04-20 01:19 | 33.27573 | -117.67318 | 10988 ft | 247 kts | 101° |
| 2026-04-20 01:19 | 33.27296 | -117.65283 | 10988 ft | 247 kts | 101° |
| 2026-04-20 01:19 | 33.27018 | -117.63248 | 10988 ft | 247 kts | 101° |
| 2026-04-20 01:19 | 33.26743 | -117.61237 | 10988 ft | 247 kts | 101° |
| 2026-04-20 01:20 | 33.26464 | -117.59196 | 10988 ft | 247 kts | 101° |
| 2026-04-20 01:20 | 33.26188 | -117.57178 | 10988 ft | 247 kts | 101° |
| 2026-04-20 01:20 | 33.25908 | -117.55136 | 10988 ft | 247 kts | 101° |
| 2026-04-20 01:20 | 33.25632 | -117.53128 | 10988 ft | 247 kts | 101° |
| 2026-04-20 01:21 | 33.25357 | -117.51126 | 10818 ft | 240 kts | 101° |
| 2026-04-20 01:21 | 33.25081 | -117.49121 | 10058 ft | 247 kts | 102° |
| 2026-04-20 01:21 | 33.24806 | -117.47119 | 9461 ft | 246 kts | 102° |
| 2026-04-20 01:21 | 33.24531 | -117.45133 | 8857 ft | 246 kts | 102° |
| 2026-04-20 01:22 | 33.24329 | -117.43104 | 8240 ft | 251 kts | 90° |
| 2026-04-20 01:22 | 33.24656 | -117.41045 | 7704 ft | 251 kts | 81° |
| 2026-04-20 01:22 | 33.25044 | -117.39066 | 7369 ft | 240 kts | 81° |
| 2026-04-20 01:22 | 33.25418 | -117.37196 | 7140 ft | 223 kts | 81° |
| 2026-04-20 01:23 | 33.25780 | -117.35410 | 6589 ft | 223 kts | 81° |
| 2026-04-20 01:23 | 33.26144 | -117.33599 | 6021 ft | 224 kts | 81° |
| 2026-04-20 01:23 | 33.26490 | -117.31802 | 5515 ft | 222 kts | 81° |
| 2026-04-20 01:23 | 33.26836 | -117.30017 | 4968 ft | 223 kts | 81° |
| 2026-04-20 01:24 | 33.27176 | -117.28217 | 4444 ft | 223 kts | 81° |
| 2026-04-20 01:24 | 33.27508 | -117.26429 | 4042 ft | 218 kts | 81° |
| 2026-04-20 01:24 | 33.27829 | -117.24697 | 3994 ft | 212 kts | 81° |
| 2026-04-20 01:24 | 33.28140 | -117.22957 | 3994 ft | 212 kts | 81° |
| 2026-04-20 01:25 | 33.28442 | -117.21251 | 3994 ft | 211 kts | 81° |
| 2026-04-20 01:25 | 33.28747 | -117.19530 | 3995 ft | 211 kts | 81° |
| 2026-04-20 01:25 | 33.29051 | -117.17815 | 3995 ft | 210 kts | 82° |
| 2026-04-20 01:25 | 33.28870 | -117.16160 | 3990 ft | 201 kts | 123° |
| 2026-04-20 01:26 | 33.27862 | -117.15125 | 3998 ft | 193 kts | 158° |
| 2026-04-20 01:26 | 33.26629 | -117.14500 | 3998 ft | 192 kts | 161° |
| 2026-04-20 01:26 | 33.25391 | -117.13908 | 3998 ft | 192 kts | 161° |
| 2026-04-20 01:26 | 33.24149 | -117.13314 | 3998 ft | 193 kts | 161° |
| 2026-04-20 01:27 | 33.22965 | -117.12560 | 3990 ft | 198 kts | 138° |
| 2026-04-20 01:27 | 33.22433 | -117.11034 | 4000 ft | 205 kts | 97° |
| 2026-04-20 01:27 | 33.22430 | -117.09341 | 4000 ft | 207 kts | 91° |
| 2026-04-20 01:27 | 33.22463 | -117.07619 | 3999 ft | 207 kts | 91° |
| 2026-04-20 01:28 | 33.22097 | -117.06014 | 3992 ft | 200 kts | 130° |
| 2026-04-20 01:28 | 33.20958 | -117.05180 | 3993 ft | 192 kts | 173° |
| 2026-04-20 01:28 | 33.19724 | -117.05534 | 3993 ft | 188 kts | 216° |
| 2026-04-20 01:28 | 33.18678 | -117.06473 | 4001 ft | 188 kts | 212° |
| 2026-04-20 01:29 | 33.17578 | -117.07301 | 3999 ft | 188 kts | 213° |
| 2026-04-20 01:29 | 33.16538 | -117.08273 | 3854 ft | 197 kts | 230° |
| 2026-04-20 01:29 | 33.15918 | -117.09840 | 3227 ft | 221 kts | 251° |
| 2026-04-20 01:29 | 33.15527 | -117.11613 | 2690 ft | 221 kts | 255° |
| 2026-04-20 01:30 | 33.15212 | -117.13322 | 2601 ft | 202 kts | 258° |
| 2026-04-20 01:30 | 33.14956 | -117.14899 | 2493 ft | 189 kts | 256° |
| 2026-04-20 01:30 | 33.14690 | -117.16431 | 2244 ft | 185 kts | 257° |
| 2026-04-20 01:30 | 33.14449 | -117.17923 | 1991 ft | 182 kts | 258° |
| 2026-04-20 01:31 | 33.14214 | -117.19385 | 1738 ft | 180 kts | 258° |
| 2026-04-20 01:31 | 33.13979 | -117.20849 | 1481 ft | 179 kts | 258° |
| 2026-04-20 01:31 | 33.13747 | -117.22288 | 1230 ft | 178 kts | 258° |
| 2026-04-20 01:31 | 33.13511 | -117.23751 | 985 ft | 175 kts | 258° |
| 2026-04-20 01:32 | 33.13341 | -117.24822 | 891 ft | 97 kts | 258° |
| 2026-04-20 01:32 | 33.13226 | -117.25543 | 708 ft | 88 kts | 257° |
| 2026-04-20 01:32 | 33.13105 | -117.26265 | 545 ft | 89 kts | 258° |
| 2026-04-20 01:32 | 33.12989 | -117.26983 | 398 ft | 86 kts | 258° |
| 2026-04-20 01:33 | 33.12891 | -117.27602 | 310 ft | 63 kts | 259° |
| 2026-04-20 01:33 | 33.12815 | -117.28070 | 311 ft | 54 kts | 259° |
| 2026-04-20 01:33 | 33.12727 | -117.28268 | 313 ft | 12 kts | 170° |
| 2026-04-20 01:33 | 33.12685 | -117.28187 | 313 ft | 12 kts | 88° |
| 2026-04-20 01:34 | 33.12690 | -117.28136 | 312 ft | 0 kts | 80° |